メインページ
METAR-TAF:

METAR-TAF

空港 :

Cambridge Bay, ヌナブト準州, カナダ

緯度: 69-06N, 経度: 105-07W, 海抜: 23m

現時点の気象観測

当レポートは50分前の11:00(UTC)に作成
北/北西の風 16kt
気温 -29°C
湿度 68%
気圧 1004 hPa
視程: 24.1km
晴天

METAR: CYCB 141100Z 33016KT 15SM SKC M29/M33 A2966 RMK SLP051

時間: 04:50 (11:50 UTC)

予報

当レポートは5時間12分前の06:38(UTC)に作成
予報は14日の 07時(UTC)から 14日の 19時(UTC)まで有効
北西の風 15kt
視程: 10km
高度3000ftの雲はほとんどない

TAF: CYCB 140638Z 1407/1419 31015KT P6SM FEW030 RMK NXT FCST BY 141300Z

4,000以上の空港の気象観測と天気予報(METAR報とTAF報)

利用可能な観測所は地図上に黄色い丸と赤い丸で示す。

丸の上にカーソルを重ねると観測所名を参照できる。

次にクリックすると気象観測と天気予報を参照できる。

マップの切り替え:黒色「×」印の緑ボタンをクリックして拡大、「-」印の緑ボタンをクリックして縮小、緑色の三角印をクリックして隣りの地図に切り替え


METAR-TAF: